sensor_id;sensor_type;location;lat;lon;timestamp;pressure;altitude;pressure_sealevel;temperature;humidity
22047;BME280;11187;49.412;20.956;2023-04-29T00:01:04;94967.00;;;4.91;89.28
22047;BME280;11187;49.412;20.956;2023-04-29T00:03:54;94965.31;;;4.93;89.63
22047;BME280;11187;49.412;20.956;2023-04-29T00:06:27;94966.97;;;4.90;89.05
22047;BME280;11187;49.412;20.956;2023-04-29T00:09:13;94961.91;;;4.82;89.64
22047;BME280;11187;49.412;20.956;2023-04-29T00:11:47;94960.19;;;4.78;89.63
22047;BME280;11187;49.412;20.956;2023-04-29T00:14:33;94959.34;;;4.79;90.09
22047;BME280;11187;49.412;20.956;2023-04-29T00:17:07;94964.41;;;4.79;89.77
22047;BME280;11187;49.412;20.956;2023-04-29T00:19:55;94961.06;;;4.77;89.62
22047;BME280;11187;49.412;20.956;2023-04-29T00:22:30;94956.81;;;4.71;89.99
22047;BME280;11187;49.412;20.956;2023-04-29T00:25:24;94957.66;;;4.66;90.22
22047;BME280;11187;49.412;20.956;2023-04-29T00:28:18;94959.34;;;4.59;90.55
22047;BME280;11187;49.412;20.956;2023-04-29T00:31:11;94953.41;;;4.55;90.89
22047;BME280;11187;49.412;20.956;2023-04-29T00:33:48;94948.31;;;4.54;91.04
22047;BME280;11187;49.412;20.956;2023-04-29T00:36:41;94950.84;;;4.54;91.33
22047;BME280;11187;49.412;20.956;2023-04-29T00:39:35;94955.94;;;4.57;91.55
22047;BME280;11187;49.412;20.956;2023-04-29T00:42:30;94955.09;;;4.58;91.58
22047;BME280;11187;49.412;20.956;2023-04-29T00:45:07;94953.41;;;4.58;92.03
22047;BME280;11187;49.412;20.956;2023-04-29T00:47:53;94942.41;;;4.63;92.34
22047;BME280;11187;49.412;20.956;2023-04-29T00:50:27;94946.66;;;4.65;92.57
22047;BME280;11187;49.412;20.956;2023-04-29T00:53:13;94946.66;;;4.70;92.53
22047;BME280;11187;49.412;20.956;2023-04-29T00:55:48;94940.75;;;4.74;92.34
22047;BME280;11187;49.412;20.956;2023-04-29T00:58:44;94941.63;;;4.77;92.64
22047;BME280;11187;49.412;20.956;2023-04-29T01:01:22;94942.44;;;4.78;92.75
22047;BME280;11187;49.412;20.956;2023-04-29T01:04:10;94950.06;;;4.82;92.90
22047;BME280;11187;49.412;20.956;2023-04-29T01:07:03;94939.09;;;4.87;92.84
22047;BME280;11187;49.412;20.956;2023-04-29T01:12:45;94939.94;;;4.93;92.70
22047;BME280;11187;49.412;20.956;2023-04-29T01:15:48;94939.94;;;4.96;92.90
22047;BME280;11187;49.412;20.956;2023-04-29T01:18:54;94939.94;;;4.98;92.86
22047;BME280;11187;49.412;20.956;2023-04-29T01:21:28;94939.06;;;4.99;92.69
22047;BME280;11187;49.412;20.956;2023-04-29T01:24:15;94937.41;;;5.02;92.87
22047;BME280;11187;49.412;20.956;2023-04-29T01:27:11;94931.47;;;5.05;93.06
22047;BME280;11187;49.412;20.956;2023-04-29T01:35:58;94937.38;;;5.15;93.05
22047;BME280;11187;49.412;20.956;2023-04-29T01:38:55;94935.69;;;5.18;92.23
22047;BME280;11187;49.412;20.956;2023-04-29T01:42:07;94933.16;;;5.21;92.64
22047;BME280;11187;49.412;20.956;2023-04-29T01:44:43;94925.56;;;5.18;91.89
22047;BME280;11187;49.412;20.956;2023-04-29T01:47:32;94919.63;;;5.19;92.00
22047;BME280;11187;49.412;20.956;2023-04-29T01:50:06;94929.78;;;5.21;91.79
22047;BME280;11187;49.412;20.956;2023-04-29T01:52:53;94930.63;;;5.21;92.10
22047;BME280;11187;49.412;20.956;2023-04-29T01:55:26;94934.00;;;5.22;92.29
22047;BME280;11187;49.412;20.956;2023-04-29T01:58:13;94932.31;;;5.24;92.08
22047;BME280;11187;49.412;20.956;2023-04-29T02:00:46;94931.44;;;5.27;91.74
22047;BME280;11187;49.412;20.956;2023-04-29T02:03:35;94933.16;;;5.26;91.82
22047;BME280;11187;49.412;20.956;2023-04-29T02:06:09;94931.44;;;5.27;91.72
22047;BME280;11187;49.412;20.956;2023-04-29T02:08:56;94923.84;;;5.27;92.10
22047;BME280;11187;49.412;20.956;2023-04-29T02:11:36;94925.53;;;5.28;91.74
22047;BME280;11187;49.412;20.956;2023-04-29T02:14:16;94928.94;;;5.30;92.05
22047;BME280;11187;49.412;20.956;2023-04-29T02:16:57;94931.47;;;5.30;91.91
22047;BME280;11187;49.412;20.956;2023-04-29T02:19:44;94928.06;;;5.31;92.40
22047;BME280;11187;49.412;20.956;2023-04-29T02:22:25;94923.84;;;5.33;92.11
22047;BME280;11187;49.412;20.956;2023-04-29T02:25:12;94917.06;;;5.35;92.44
22047;BME280;11187;49.412;20.956;2023-04-29T02:27:45;94923.81;;;5.37;92.59
22047;BME280;11187;49.412;20.956;2023-04-29T02:30:32;94923.81;;;5.36;93.58
22047;BME280;11187;49.412;20.956;2023-04-29T02:33:12;94915.38;;;5.37;93.22
22047;BME280;11187;49.412;20.956;2023-04-29T02:35:59;94913.69;;;5.39;93.69
22047;BME280;11187;49.412;20.956;2023-04-29T02:38:32;94917.06;;;5.41;93.64
22047;BME280;11187;49.412;20.956;2023-04-29T02:41:19;94911.97;;;5.42;94.12
22047;BME280;11187;49.412;20.956;2023-04-29T02:43:52;94911.13;;;5.47;94.31
22047;BME280;11187;49.412;20.956;2023-04-29T02:46:39;94910.28;;;5.48;94.41
22047;BME280;11187;49.412;20.956;2023-04-29T02:49:17;94910.28;;;5.52;94.16
22047;BME280;11187;49.412;20.956;2023-04-29T02:52:11;94907.72;;;5.57;94.21
22047;BME280;11187;49.412;20.956;2023-04-29T02:55:05;94911.94;;;5.58;94.31
22047;BME280;11187;49.412;20.956;2023-04-29T02:57:38;94907.69;;;5.58;94.30
22047;BME280;11187;49.412;20.956;2023-04-29T03:00:25;94906.03;;;5.57;94.67
22047;BME280;11187;49.412;20.956;2023-04-29T03:02:58;94909.41;;;5.59;94.51
22047;BME280;11187;49.412;20.956;2023-04-29T03:05:52;94915.34;;;5.61;94.79
22047;BME280;11187;49.412;20.956;2023-04-29T03:08:46;94910.22;;;5.64;94.86
22047;BME280;11187;49.412;20.956;2023-04-29T03:11:40;94914.44;;;5.67;95.11
22047;BME280;11187;49.412;20.956;2023-04-29T03:14:13;94903.44;;;5.71;95.20
22047;BME280;11187;49.412;20.956;2023-04-29T03:17:07;94904.31;;;5.70;95.30
22047;BME280;11187;49.412;20.956;2023-04-29T03:19:40;94903.44;;;5.73;95.48
22047;BME280;11187;49.412;20.956;2023-04-29T03:22:28;94902.59;;;5.75;95.70
22047;BME280;11187;49.412;20.956;2023-04-29T03:25:01;94898.34;;;5.77;95.54
22047;BME280;11187;49.412;20.956;2023-04-29T03:27:49;94898.31;;;5.80;95.71
22047;BME280;11187;49.412;20.956;2023-04-29T03:30:29;94905.13;;;5.81;95.91
22047;BME280;11187;49.412;20.956;2023-04-29T03:33:16;94908.50;;;5.82;95.81
22047;BME280;11187;49.412;20.956;2023-04-29T03:35:49;94907.66;;;5.81;95.74
22047;BME280;11187;49.412;20.956;2023-04-29T03:38:36;94910.16;;;5.83;96.07
22047;BME280;11187;49.412;20.956;2023-04-29T03:41:16;94908.50;;;5.82;95.95
22047;BME280;11187;49.412;20.956;2023-04-29T03:43:57;94908.50;;;5.82;95.83
22047;BME280;11187;49.412;20.956;2023-04-29T03:46:40;94906.78;;;5.82;95.63
22047;BME280;11187;49.412;20.956;2023-04-29T03:49:27;94907.66;;;5.80;95.94
22047;BME280;11187;49.412;20.956;2023-04-29T03:52:21;94915.28;;;5.78;95.92
22047;BME280;11187;49.412;20.956;2023-04-29T03:55:15;94911.88;;;5.76;95.99
22047;BME280;11187;49.412;20.956;2023-04-29T03:57:48;94913.59;;;5.76;95.97
22047;BME280;11187;49.412;20.956;2023-04-29T04:00:42;94917.00;;;5.75;96.17
22047;BME280;11187;49.412;20.956;2023-04-29T04:03:36;94912.75;;;5.75;96.08
22047;BME280;11187;49.412;20.956;2023-04-29T04:06:09;94909.34;;;5.76;96.05
22047;BME280;11187;49.412;20.956;2023-04-29T04:08:56;94914.44;;;5.78;96.18
22047;BME280;11187;49.412;20.956;2023-04-29T04:11:29;94913.56;;;5.79;96.03
22047;BME280;11187;49.412;20.956;2023-04-29T04:14:16;94916.13;;;5.80;96.27
22047;BME280;11187;49.412;20.956;2023-04-29T04:16:49;94915.28;;;5.78;96.18
22047;BME280;11187;49.412;20.956;2023-04-29T04:19:36;94911.91;;;5.73;96.51
22047;BME280;11187;49.412;20.956;2023-04-29T04:22:09;94909.38;;;5.69;96.88
22047;BME280;11187;49.412;20.956;2023-04-29T04:24:56;94908.53;;;5.68;97.07
22047;BME280;11187;49.412;20.956;2023-04-29T04:27:29;94911.09;;;5.68;97.00
22047;BME280;11187;49.412;20.956;2023-04-29T04:30:09;94907.66;;;5.68;97.03
22047;BME280;11187;49.412;20.956;2023-04-29T04:32:49;94919.56;;;5.64;97.22
22047;BME280;11187;49.412;20.956;2023-04-29T04:35:43;94918.69;;;5.67;97.50
22047;BME280;11187;49.412;20.956;2023-04-29T04:38:39;94915.31;;;5.71;97.41
22047;BME280;11187;49.412;20.956;2023-04-29T04:41:12;94908.53;;;5.73;97.28
22047;BME280;11187;49.412;20.956;2023-04-29T04:43:59;94906.84;;;5.75;97.32
22047;BME280;11187;49.412;20.956;2023-04-29T04:46:32;94913.56;;;5.79;97.41
22047;BME280;11187;49.412;20.956;2023-04-29T04:49:26;94909.34;;;5.79;97.30
22047;BME280;11187;49.412;20.956;2023-04-29T04:52:20;94905.94;;;5.80;97.57
22047;BME280;11187;49.412;20.956;2023-04-29T04:54:54;94905.09;;;5.86;97.48
22047;BME280;11187;49.412;20.956;2023-04-29T04:57:48;94910.16;;;5.89;97.42
22047;BME280;11187;49.412;20.956;2023-04-29T05:00:45;94913.53;;;5.91;97.36
22047;BME280;11187;49.412;20.956;2023-04-29T05:03:18;94900.84;;;5.93;97.42
22047;BME280;11187;49.412;20.956;2023-04-29T05:06:05;94905.94;;;5.94;97.82
22047;BME280;11187;49.412;20.956;2023-04-29T05:08:38;94904.22;;;5.95;97.77
22047;BME280;11187;49.412;20.956;2023-04-29T05:11:25;94916.94;;;5.96;98.07
22047;BME280;11187;49.412;20.956;2023-04-29T05:13:58;94909.31;;;5.98;98.16
22047;BME280;11187;49.412;20.956;2023-04-29T05:16:38;94905.91;;;5.99;98.05
22047;BME280;11187;49.412;20.956;2023-04-29T05:19:18;94908.47;;;6.00;98.30
22047;BME280;11187;49.412;20.956;2023-04-29T05:21:58;94911.81;;;6.04;98.16
22047;BME280;11187;49.412;20.956;2023-04-29T05:24:38;94908.41;;;6.08;98.52
22047;BME280;11187;49.412;20.956;2023-04-29T05:27:20;94912.63;;;6.14;98.80
22047;BME280;11187;49.412;20.956;2023-04-29T05:30:00;94910.91;;;6.20;98.91
22047;BME280;11187;49.412;20.956;2023-04-29T05:32:40;94906.66;;;6.27;99.00
22047;BME280;11187;49.412;20.956;2023-04-29T05:35:20;94909.13;;;6.33;99.20
22047;BME280;11187;49.412;20.956;2023-04-29T05:38:00;94902.34;;;6.37;98.78
22047;BME280;11187;49.412;20.956;2023-04-29T05:40:40;94904.88;;;6.41;98.73
22047;BME280;11187;49.412;20.956;2023-04-29T05:43:22;94908.22;;;6.48;98.62
22047;BME280;11187;49.412;20.956;2023-04-29T05:46:06;94909.03;;;6.53;98.75
22047;BME280;11187;49.412;20.956;2023-04-29T05:48:39;94908.16;;;6.57;98.67
22047;BME280;11187;49.412;20.956;2023-04-29T05:51:26;94906.41;;;6.62;98.93
22047;BME280;11187;49.412;20.956;2023-04-29T05:54:00;94920.78;;;6.69;99.26
22047;BME280;11187;49.412;20.956;2023-04-29T05:56:47;94914.78;;;6.78;99.57
22047;BME280;11187;49.412;20.956;2023-04-29T05:59:20;94918.19;;;6.82;99.61
22047;BME280;11187;49.412;20.956;2023-04-29T06:02:07;94918.16;;;6.86;100.00
22047;BME280;11187;49.412;20.956;2023-04-29T06:04:40;94918.97;;;6.88;100.00
22047;BME280;11187;49.412;20.956;2023-04-29T06:07:27;94916.41;;;6.92;100.00
22047;BME280;11187;49.412;20.956;2023-04-29T06:10:00;94916.38;;;6.96;100.00
22047;BME280;11187;49.412;20.956;2023-04-29T06:12:47;94911.19;;;7.04;100.00
22047;BME280;11187;49.412;20.956;2023-04-29T06:15:23;94919.63;;;7.10;100.00
22047;BME280;11187;49.412;20.956;2023-04-29T06:18:17;94915.34;;;7.17;100.00
22047;BME280;11187;49.412;20.956;2023-04-29T06:20:50;94915.31;;;7.22;100.00
22047;BME280;11187;49.412;20.956;2023-04-29T06:23:37;94916.13;;;7.27;100.00
22047;BME280;11187;49.412;20.956;2023-04-29T06:26:10;94924.59;;;7.29;100.00
22047;BME280;11187;49.412;20.956;2023-04-29T06:28:58;94910.13;;;7.31;100.00
22047;BME280;11187;49.412;20.956;2023-04-29T06:31:31;94915.16;;;7.36;100.00
22047;BME280;11187;49.412;20.956;2023-04-29T06:34:18;94915.97;;;7.42;100.00
22047;BME280;11187;49.412;20.956;2023-04-29T06:36:51;94912.53;;;7.46;100.00
22047;BME280;11187;49.412;20.956;2023-04-29T06:39:45;94914.22;;;7.49;100.00
22047;BME280;11187;49.412;20.956;2023-04-29T06:42:19;94919.28;;;7.52;100.00
22047;BME280;11187;49.412;20.956;2023-04-29T06:45:13;94920.06;;;7.57;100.00
22047;BME280;11187;49.412;20.956;2023-04-29T06:47:46;94917.47;;;7.63;100.00
22047;BME280;11187;49.412;20.956;2023-04-29T06:50:33;94914.88;;;7.66;100.00
22047;BME280;11187;49.412;20.956;2023-04-29T06:53:27;94924.19;;;7.70;100.00
22047;BME280;11187;49.412;20.956;2023-04-29T06:56:21;94914.78;;;7.74;100.00
22047;BME280;11187;49.412;20.956;2023-04-29T06:59:15;94918.16;;;7.78;100.00
22047;BME280;11187;49.412;20.956;2023-04-29T07:02:09;94915.56;;;7.81;100.00
22047;BME280;11187;49.412;20.956;2023-04-29T07:05:03;94916.41;;;7.83;100.00
22047;BME280;11187;49.412;20.956;2023-04-29T07:07:57;94913.84;;;7.86;100.00
22047;BME280;11187;49.412;20.956;2023-04-29T07:10:31;94910.38;;;7.90;100.00
22047;BME280;11187;49.412;20.956;2023-04-29T07:13:18;94907.81;;;7.93;100.00
22047;BME280;11187;49.412;20.956;2023-04-29T07:15:51;94906.09;;;7.95;100.00
22047;BME280;11187;49.412;20.956;2023-04-29T07:18:38;94909.44;;;7.99;100.00
22047;BME280;11187;49.412;20.956;2023-04-29T07:21:11;94913.66;;;8.01;100.00
22047;BME280;11187;49.412;20.956;2023-04-29T07:23:58;94914.47;;;8.05;100.00
22047;BME280;11187;49.412;20.956;2023-04-29T07:26:34;94909.31;;;8.08;100.00
22047;BME280;11187;49.412;20.956;2023-04-29T07:29:21;94910.97;;;8.10;100.00
22047;BME280;11187;49.412;20.956;2023-04-29T07:31:54;94912.63;;;8.14;100.00
22047;BME280;11187;49.412;20.956;2023-04-29T07:34:48;94895.63;;;8.15;100.00
22047;BME280;11187;49.412;20.956;2023-04-29T07:37:21;94910.91;;;8.18;100.00
22047;BME280;11187;49.412;20.956;2023-04-29T07:40:15;94910.03;;;8.21;100.00
22047;BME280;11187;49.412;20.956;2023-04-29T07:43:09;94909.13;;;8.25;100.00
22047;BME280;11187;49.412;20.956;2023-04-29T07:45:42;94903.97;;;8.28;100.00
22047;BME280;11187;49.412;20.956;2023-04-29T07:48:29;94909.03;;;8.32;100.00
22047;BME280;11187;49.412;20.956;2023-04-29T07:51:02;94904.69;;;8.39;100.00
22047;BME280;11187;49.412;20.956;2023-04-29T07:53:49;94911.41;;;8.46;100.00
22047;BME280;11187;49.412;20.956;2023-04-29T07:56:22;94913.88;;;8.54;100.00
22047;BME280;11187;49.412;20.956;2023-04-29T07:59:09;94912.88;;;8.63;100.00
22047;BME280;11187;49.412;20.956;2023-04-29T08:01:42;94909.41;;;8.70;100.00
22047;BME280;11187;49.412;20.956;2023-04-29T08:04:29;94914.44;;;8.74;100.00
22047;BME280;11187;49.412;20.956;2023-04-29T08:07:03;94916.94;;;8.77;100.00
22047;BME280;11187;49.412;20.956;2023-04-29T08:09:57;94918.59;;;8.80;100.00
22047;BME280;11187;49.412;20.956;2023-04-29T08:12:51;94927.00;;;8.87;100.00
22047;BME280;11187;49.412;20.956;2023-04-29T08:15:24;94921.00;;;8.89;100.00
22047;BME280;11187;49.412;20.956;2023-04-29T08:18:11;94920.94;;;8.94;100.00
22047;BME280;11187;49.412;20.956;2023-04-29T08:20:46;94925.13;;;8.99;100.00
22047;BME280;11187;49.412;20.956;2023-04-29T08:23:33;94919.06;;;9.05;100.00
22047;BME280;11187;49.412;20.956;2023-04-29T08:26:09;94915.53;;;9.14;100.00
22047;BME280;11187;49.412;20.956;2023-04-29T08:29:03;94920.56;;;9.18;100.00
22047;BME280;11187;49.412;20.956;2023-04-29T08:31:57;94917.03;;;9.27;100.00
22047;BME280;11187;49.412;20.956;2023-04-29T08:34:30;94922.03;;;9.33;100.00
22047;BME280;11187;49.412;20.956;2023-04-29T08:37:17;94915.09;;;9.40;100.00
22047;BME280;11187;49.412;20.956;2023-04-29T08:39:50;94917.53;;;9.46;100.00
22047;BME280;11187;49.412;20.956;2023-04-29T08:42:37;94919.94;;;9.55;100.00
22047;BME280;11187;49.412;20.956;2023-04-29T08:45:14;94910.38;;;9.67;100.00
22047;BME280;11187;49.412;20.956;2023-04-29T08:48:05;94912.81;;;9.73;100.00
22047;BME280;11187;49.412;20.956;2023-04-29T08:50:40;94910.94;;;9.81;100.00
22047;BME280;11187;49.412;20.956;2023-04-29T08:53:27;94915.97;;;9.87;100.00
22047;BME280;11187;49.412;20.956;2023-04-29T08:56:06;94913.38;;;9.90;100.00
22047;BME280;11187;49.412;20.956;2023-04-29T08:59:01;94917.56;;;9.93;100.00
22047;BME280;11187;49.412;20.956;2023-04-29T09:01:55;94911.59;;;9.92;100.00
22047;BME280;11187;49.412;20.956;2023-04-29T09:05:10;94915.75;;;9.98;100.00
22047;BME280;11187;49.412;20.956;2023-04-29T09:07:44;94913.91;;;10.06;99.99
22047;BME280;11187;49.412;20.956;2023-04-29T09:10:31;94913.00;;;10.09;98.55
22047;BME280;11187;49.412;20.956;2023-04-29T09:13:05;94912.94;;;10.10;98.22
22047;BME280;11187;49.412;20.956;2023-04-29T09:15:52;94914.53;;;10.17;98.74
22047;BME280;11187;49.412;20.956;2023-04-29T09:21:29;94910.28;;;10.16;97.21
22047;BME280;11187;49.412;20.956;2023-04-29T09:24:05;94917.97;;;10.15;96.57
22047;BME280;11187;49.412;20.956;2023-04-29T09:26:52;94911.09;;;10.18;97.25
22047;BME280;11187;49.412;20.956;2023-04-29T09:29:25;94905.88;;;10.23;96.08
22047;BME280;11187;49.412;20.956;2023-04-29T09:32:20;94910.06;;;10.29;94.60
22047;BME280;11187;49.412;20.956;2023-04-29T09:34:53;94899.66;;;10.38;95.13
22047;BME280;11187;49.412;20.956;2023-04-29T09:37:47;94901.03;;;10.53;94.41
22047;BME280;11187;49.412;20.956;2023-04-29T09:40:42;94894.75;;;10.68;93.61
22047;BME280;11187;49.412;20.956;2023-04-29T09:43:40;94892.63;;;10.85;92.73
22047;BME280;11187;49.412;20.956;2023-04-29T09:46:35;94895.66;;;11.01;91.62
22047;BME280;11187;49.412;20.956;2023-04-29T09:49:26;94894.63;;;11.08;89.23
22047;BME280;11187;49.412;20.956;2023-04-29T09:52:15;94891.69;;;11.25;91.48
22047;BME280;11187;49.412;20.956;2023-04-29T09:54:48;94890.50;;;11.38;89.26
22047;BME280;11187;49.412;20.956;2023-04-29T09:57:38;94893.53;;;11.53;88.75
22047;BME280;11187;49.412;20.956;2023-04-29T10:00:14;94891.56;;;11.64;88.67
22047;BME280;11187;49.412;20.956;2023-04-29T10:03:08;94878.59;;;11.68;88.11
22047;BME280;11187;49.412;20.956;2023-04-29T10:06:03;94881.97;;;11.70;86.21
22047;BME280;11187;49.412;20.956;2023-04-29T10:08:38;94879.16;;;11.80;87.68
22047;BME280;11187;49.412;20.956;2023-04-29T10:11:25;94875.41;;;11.93;85.86
22047;BME280;11187;49.412;20.956;2023-04-29T10:14:00;94871.75;;;12.02;86.81
22047;BME280;11187;49.412;20.956;2023-04-29T10:17:15;94871.66;;;12.05;84.65
22047;BME280;11187;49.412;20.956;2023-04-29T10:20:03;94869.88;;;12.08;84.72
22047;BME280;11187;49.412;20.956;2023-04-29T10:22:52;94868.75;;;12.17;85.37
22047;BME280;11187;49.412;20.956;2023-04-29T10:25:29;94867.63;;;12.26;85.72
22047;BME280;11187;49.412;20.956;2023-04-29T10:28:17;94865.13;;;12.24;83.66
22047;BME280;11187;49.412;20.956;2023-04-29T10:30:53;94865.06;;;12.26;84.25
22047;BME280;11187;49.412;20.956;2023-04-29T10:33:42;94863.41;;;12.25;83.17
22047;BME280;11187;49.412;20.956;2023-04-29T10:36:17;94856.41;;;12.30;84.54
22047;BME280;11187;49.412;20.956;2023-04-29T10:39:15;94864.00;;;12.33;83.56
22047;BME280;11187;49.412;20.956;2023-04-29T10:41:52;94869.19;;;12.31;83.18
22047;BME280;11187;49.412;20.956;2023-04-29T10:45:18;94866.78;;;12.27;83.08
22047;BME280;11187;49.412;20.956;2023-04-29T10:50:59;94853.97;;;12.25;83.43
22047;BME280;11187;49.412;20.956;2023-04-29T10:54:12;94855.00;;;12.20;81.53
22047;BME280;11187;49.412;20.956;2023-04-29T10:57:19;94850.91;;;12.12;81.58
22047;BME280;11187;49.412;20.956;2023-04-29T10:59:53;94850.91;;;12.12;82.18
22047;BME280;11187;49.412;20.956;2023-04-29T11:02:47;94850.88;;;12.14;81.71
22047;BME280;11187;49.412;20.956;2023-04-29T11:05:41;94847.34;;;12.18;81.97
22047;BME280;11187;49.412;20.956;2023-04-29T11:08:19;94841.94;;;12.27;82.12
22047;BME280;11187;49.412;20.956;2023-04-29T11:11:06;94845.19;;;12.32;80.79
22047;BME280;11187;49.412;20.956;2023-04-29T11:13:39;94840.72;;;12.39;81.83
22047;BME280;11187;49.412;20.956;2023-04-29T11:16:31;94843.69;;;12.55;81.27
22047;BME280;11187;49.412;20.956;2023-04-29T11:19:08;94843.06;;;12.75;80.76
22047;BME280;11187;49.412;20.956;2023-04-29T11:22:07;94841.75;;;12.90;79.91
22047;BME280;11187;49.412;20.956;2023-04-29T11:25:05;94840.38;;;13.06;80.07
22047;BME280;11187;49.412;20.956;2023-04-29T11:27:59;94844.47;;;13.12;79.34
22047;BME280;11187;49.412;20.956;2023-04-29T11:30:34;94831.41;;;13.18;79.63
22047;BME280;11187;49.412;20.956;2023-04-29T11:33:31;94842.34;;;13.25;79.65
22047;BME280;11187;49.412;20.956;2023-04-29T11:36:04;94837.44;;;13.44;80.41
22047;BME280;11187;49.412;20.956;2023-04-29T11:39:02;94836.41;;;13.49;78.15
22047;BME280;11187;49.412;20.956;2023-04-29T11:42:04;94836.81;;;13.62;77.89
22047;BME280;11187;49.412;20.956;2023-04-29T11:44:37;94831.78;;;13.83;77.87
22047;BME280;11187;49.412;20.956;2023-04-29T11:47:28;94837.19;;;14.00;77.54
22047;BME280;11187;49.412;20.956;2023-04-29T11:50:21;94837.94;;;14.04;77.13
22047;BME280;11187;49.412;20.956;2023-04-29T11:53:15;94832.31;;;13.92;76.15
22047;BME280;11187;49.412;20.956;2023-04-29T11:56:09;94832.38;;;13.91;76.99
22047;BME280;11187;49.412;20.956;2023-04-29T11:58:43;94829.00;;;13.89;77.54
22047;BME280;11187;49.412;20.956;2023-04-29T12:01:37;94833.50;;;13.84;77.39
22047;BME280;11187;49.412;20.956;2023-04-29T12:04:31;94832.03;;;13.76;76.91
22047;BME280;11187;49.412;20.956;2023-04-29T12:07:08;94832.19;;;13.72;77.60
22047;BME280;11187;49.412;20.956;2023-04-29T12:10:09;94841.00;;;13.65;76.52
22047;BME280;11187;49.412;20.956;2023-04-29T12:12:42;94829.88;;;13.64;77.29
22047;BME280;11187;49.412;20.956;2023-04-29T12:15:32;94828.88;;;13.68;76.98
22047;BME280;11187;49.412;20.956;2023-04-29T12:18:07;94835.94;;;13.63;76.98
22047;BME280;11187;49.412;20.956;2023-04-29T12:20:54;94831.78;;;13.59;77.06
22047;BME280;11187;49.412;20.956;2023-04-29T12:23:28;94826.75;;;13.56;77.60
22047;BME280;11187;49.412;20.956;2023-04-29T12:26:15;94825.56;;;13.65;78.23
22047;BME280;11187;49.412;20.956;2023-04-29T12:28:53;94819.09;;;13.78;77.82
22047;BME280;11187;49.412;20.956;2023-04-29T12:31:40;94812.91;;;13.84;77.30
22047;BME280;11187;49.412;20.956;2023-04-29T12:34:13;94819.72;;;13.85;77.30
22047;BME280;11187;49.412;20.956;2023-04-29T12:37:01;94818.09;;;13.82;76.44
22047;BME280;11187;49.412;20.956;2023-04-29T12:39:34;94808.88;;;13.76;76.58
22047;BME280;11187;49.412;20.956;2023-04-29T12:42:31;94806.31;;;13.76;76.44
22047;BME280;11187;49.412;20.956;2023-04-29T12:45:29;94804.34;;;13.83;76.54
22047;BME280;11187;49.412;20.956;2023-04-29T12:48:02;94804.97;;;13.90;76.07
22047;BME280;11187;49.412;20.956;2023-04-29T12:51:10;94792.47;;;14.03;74.97
22047;BME280;11187;49.412;20.956;2023-04-29T12:53:43;94798.97;;;14.13;75.55
22047;BME280;11187;49.412;20.956;2023-04-29T12:56:30;94797.78;;;14.22;75.75
22047;BME280;11187;49.412;20.956;2023-04-29T12:59:07;94794.00;;;14.30;74.58
22047;BME280;11187;49.412;20.956;2023-04-29T13:01:56;94791.25;;;14.35;73.63
22047;BME280;11187;49.412;20.956;2023-04-29T13:04:29;94790.97;;;14.43;74.21
22047;BME280;11187;49.412;20.956;2023-04-29T13:07:18;94786.53;;;14.46;73.34
22047;BME280;11187;49.412;20.956;2023-04-29T13:09:51;94785.56;;;14.49;73.72
22047;BME280;11187;49.412;20.956;2023-04-29T13:12:45;94783.19;;;14.44;72.63
22047;BME280;11187;49.412;20.956;2023-04-29T13:15:39;94784.38;;;14.35;72.72
22047;BME280;11187;49.412;20.956;2023-04-29T13:18:34;94777.50;;;14.12;72.69
22047;BME280;11187;49.412;20.956;2023-04-29T13:21:27;94780.25;;;14.08;73.97
22047;BME280;11187;49.412;20.956;2023-04-29T13:24:14;94781.19;;;14.07;74.09
22047;BME280;11187;49.412;20.956;2023-04-29T13:26:50;94787.28;;;14.04;73.60
22047;BME280;11187;49.412;20.956;2023-04-29T13:29:37;94790.91;;;13.98;73.25
22047;BME280;11187;49.412;20.956;2023-04-29T13:32:10;94784.13;;;13.96;73.47
22047;BME280;11187;49.412;20.956;2023-04-29T13:34:58;94777.25;;;13.96;73.51
22047;BME280;11187;49.412;20.956;2023-04-29T13:37:31;94778.16;;;13.95;73.89
22047;BME280;11187;49.412;20.956;2023-04-29T13:40:25;94778.66;;;14.05;74.13
22047;BME280;11187;49.412;20.956;2023-04-29T13:43:04;94781.59;;;14.18;74.05
22047;BME280;11187;49.412;20.956;2023-04-29T13:46:11;94778.56;;;14.30;72.70
22047;BME280;11187;49.412;20.956;2023-04-29T13:49:05;94785.09;;;14.39;72.79
22047;BME280;11187;49.412;20.956;2023-04-29T13:52:19;94782.28;;;14.45;72.25
22047;BME280;11187;49.412;20.956;2023-04-29T13:55:17;94785.75;;;14.44;72.67
22047;BME280;11187;49.412;20.956;2023-04-29T13:57:53;94779.59;;;14.48;72.89
22047;BME280;11187;49.412;20.956;2023-04-29T14:00:50;94779.06;;;14.40;72.24
22047;BME280;11187;49.412;20.956;2023-04-29T14:03:26;94775.81;;;14.35;72.44
22047;BME280;11187;49.412;20.956;2023-04-29T14:06:15;94772.41;;;14.34;72.62
22047;BME280;11187;49.412;20.956;2023-04-29T14:08:48;94781.03;;;14.33;73.23
22047;BME280;11187;49.412;20.956;2023-04-29T14:11:35;94779.59;;;14.26;72.92
22047;BME280;11187;49.412;20.956;2023-04-29T14:14:08;94768.38;;;14.27;72.93
22047;BME280;11187;49.412;20.956;2023-04-29T14:16:55;94767.56;;;14.27;73.19
22047;BME280;11187;49.412;20.956;2023-04-29T14:19:28;94767.59;;;14.25;73.73
22047;BME280;11187;49.412;20.956;2023-04-29T14:22:22;94780.59;;;14.22;72.64
22047;BME280;11187;49.412;20.956;2023-04-29T14:25:16;94772.28;;;14.15;73.02
22047;BME280;11187;49.412;20.956;2023-04-29T14:27:51;94771.66;;;14.09;73.10
22047;BME280;11187;49.412;20.956;2023-04-29T14:30:38;94762.41;;;14.03;72.65
22047;BME280;11187;49.412;20.956;2023-04-29T14:33:12;94768.81;;;13.93;72.78
22047;BME280;11187;49.412;20.956;2023-04-29T14:35:59;94763.00;;;13.88;72.70
22047;BME280;11187;49.412;20.956;2023-04-29T14:38:32;94763.22;;;13.82;73.23
22047;BME280;11187;49.412;20.956;2023-04-29T14:41:19;94761.53;;;13.81;73.74